sensor_id;sensor_type;location;lat;lon;timestamp;temperature;humidity
37842;DHT22;23682;53.508;10.476;2022-10-16T00:01:22;14.10;90.60
37842;DHT22;23682;53.508;10.476;2022-10-16T00:03:49;14.00;90.50
37842;DHT22;23682;53.508;10.476;2022-10-16T00:06:18;14.00;90.60
37842;DHT22;23682;53.508;10.476;2022-10-16T00:08:45;14.00;90.70
37842;DHT22;23682;53.508;10.476;2022-10-16T00:11:27;14.00;90.70
37842;DHT22;23682;53.508;10.476;2022-10-16T00:13:58;14.00;90.60
37842;DHT22;23682;53.508;10.476;2022-10-16T00:16:26;13.90;90.60
37842;DHT22;23682;53.508;10.476;2022-10-16T00:18:53;13.90;90.70
37842;DHT22;23682;53.508;10.476;2022-10-16T00:21:23;13.90;90.70
37842;DHT22;23682;53.508;10.476;2022-10-16T00:23:54;13.90;90.70
37842;DHT22;23682;53.508;10.476;2022-10-16T00:26:22;13.90;90.70
37842;DHT22;23682;53.508;10.476;2022-10-16T00:28:50;13.80;90.70
37842;DHT22;23682;53.508;10.476;2022-10-16T00:31:20;13.80;90.60
37842;DHT22;23682;53.508;10.476;2022-10-16T00:33:47;13.80;90.50
37842;DHT22;23682;53.508;10.476;2022-10-16T00:36:17;13.80;90.50
37842;DHT22;23682;53.508;10.476;2022-10-16T00:38:44;13.80;90.50
37842;DHT22;23682;53.508;10.476;2022-10-16T00:41:16;13.80;90.40
37842;DHT22;23682;53.508;10.476;2022-10-16T00:43:45;13.70;90.40
37842;DHT22;23682;53.508;10.476;2022-10-16T00:51:39;13.60;90.60
37842;DHT22;23682;53.508;10.476;2022-10-16T00:54:10;13.60;90.70
37842;DHT22;23682;53.508;10.476;2022-10-16T00:56:38;13.50;90.60
37842;DHT22;23682;53.508;10.476;2022-10-16T00:59:11;13.50;90.70
37842;DHT22;23682;53.508;10.476;2022-10-16T01:01:40;13.50;90.90
37842;DHT22;23682;53.508;10.476;2022-10-16T01:04:07;13.40;90.90
37842;DHT22;23682;53.508;10.476;2022-10-16T01:09:58;13.40;90.90
37842;DHT22;23682;53.508;10.476;2022-10-16T01:17:46;13.30;91.10
37842;DHT22;23682;53.508;10.476;2022-10-16T01:23:15;13.20;91.10
37842;DHT22;23682;53.508;10.476;2022-10-16T01:31:19;13.20;91.10
37842;DHT22;23682;53.508;10.476;2022-10-16T01:36:53;13.20;91.00
37842;DHT22;23682;53.508;10.476;2022-10-16T01:39:25;13.20;91.00
37842;DHT22;23682;53.508;10.476;2022-10-16T01:42:02;13.10;91.20
37842;DHT22;23682;53.508;10.476;2022-10-16T01:44:32;13.10;91.10
37842;DHT22;23682;53.508;10.476;2022-10-16T01:47:00;13.10;90.90
37842;DHT22;23682;53.508;10.476;2022-10-16T01:49:31;13.10;91.00
37842;DHT22;23682;53.508;10.476;2022-10-16T01:52:02;13.10;90.90
37842;DHT22;23682;53.508;10.476;2022-10-16T01:54:32;13.10;90.80
37842;DHT22;23682;53.508;10.476;2022-10-16T01:57:01;13.10;90.70
37842;DHT22;23682;53.508;10.476;2022-10-16T01:59:31;13.10;90.50
37842;DHT22;23682;53.508;10.476;2022-10-16T02:02:04;13.10;90.50
37842;DHT22;23682;53.508;10.476;2022-10-16T02:04:33;13.10;90.30
37842;DHT22;23682;53.508;10.476;2022-10-16T02:07:01;13.10;90.30
37842;DHT22;23682;53.508;10.476;2022-10-16T02:09:30;13.10;90.40
37842;DHT22;23682;53.508;10.476;2022-10-16T02:11:59;13.10;90.20
37842;DHT22;23682;53.508;10.476;2022-10-16T02:14:29;13.10;90.10
37842;DHT22;23682;53.508;10.476;2022-10-16T02:16:56;13.10;90.20
37842;DHT22;23682;53.508;10.476;2022-10-16T02:19:22;13.10;90.20
37842;DHT22;23682;53.508;10.476;2022-10-16T02:21:58;13.10;90.00
37842;DHT22;23682;53.508;10.476;2022-10-16T02:24:52;13.10;90.20
37842;DHT22;23682;53.508;10.476;2022-10-16T02:27:48;13.10;89.90
37842;DHT22;23682;53.508;10.476;2022-10-16T02:30:28;13.10;89.50
37842;DHT22;23682;53.508;10.476;2022-10-16T02:32:56;13.00;89.60
37842;DHT22;23682;53.508;10.476;2022-10-16T02:35:25;13.00;89.70
37842;DHT22;23682;53.508;10.476;2022-10-16T02:37:54;13.00;88.90
37842;DHT22;23682;53.508;10.476;2022-10-16T02:40:21;13.00;89.20
37842;DHT22;23682;53.508;10.476;2022-10-16T02:42:52;13.00;88.80
37842;DHT22;23682;53.508;10.476;2022-10-16T02:45:21;12.90;89.00
37842;DHT22;23682;53.508;10.476;2022-10-16T02:47:48;12.90;88.60
37842;DHT22;23682;53.508;10.476;2022-10-16T02:50:15;12.90;88.90
37842;DHT22;23682;53.508;10.476;2022-10-16T02:52:42;12.90;88.90
37842;DHT22;23682;53.508;10.476;2022-10-16T02:55:09;12.90;88.60
37842;DHT22;23682;53.508;10.476;2022-10-16T02:57:36;12.90;88.30
37842;DHT22;23682;53.508;10.476;2022-10-16T03:00:05;12.90;88.50
37842;DHT22;23682;53.508;10.476;2022-10-16T03:02:32;12.90;88.50
37842;DHT22;23682;53.508;10.476;2022-10-16T03:04:59;12.90;88.30
37842;DHT22;23682;53.508;10.476;2022-10-16T03:07:25;12.90;87.60
37842;DHT22;23682;53.508;10.476;2022-10-16T03:09:53;12.90;87.70
37842;DHT22;23682;53.508;10.476;2022-10-16T03:12:21;12.80;87.90
37842;DHT22;23682;53.508;10.476;2022-10-16T03:14:48;12.80;87.90
37842;DHT22;23682;53.508;10.476;2022-10-16T03:17:14;12.80;87.80
37842;DHT22;23682;53.508;10.476;2022-10-16T03:19:43;12.70;88.00
37842;DHT22;23682;53.508;10.476;2022-10-16T03:22:10;12.70;88.00
37842;DHT22;23682;53.508;10.476;2022-10-16T03:24:37;12.60;88.20
37842;DHT22;23682;53.508;10.476;2022-10-16T03:27:04;12.60;88.40
37842;DHT22;23682;53.508;10.476;2022-10-16T03:29:32;12.60;88.80
37842;DHT22;23682;53.508;10.476;2022-10-16T03:31:59;12.60;88.40
37842;DHT22;23682;53.508;10.476;2022-10-16T03:34:26;12.50;89.00
37842;DHT22;23682;53.508;10.476;2022-10-16T03:36:54;12.50;88.90
37842;DHT22;23682;53.508;10.476;2022-10-16T03:39:21;12.50;89.30
37842;DHT22;23682;53.508;10.476;2022-10-16T03:41:48;12.40;88.90
37842;DHT22;23682;53.508;10.476;2022-10-16T03:44:15;12.40;88.70
37842;DHT22;23682;53.508;10.476;2022-10-16T03:46:42;12.40;89.00
37842;DHT22;23682;53.508;10.476;2022-10-16T03:49:09;12.40;89.50
37842;DHT22;23682;53.508;10.476;2022-10-16T03:51:36;12.40;89.10
37842;DHT22;23682;53.508;10.476;2022-10-16T03:54:03;12.30;89.20
37842;DHT22;23682;53.508;10.476;2022-10-16T03:56:30;12.30;89.20
37842;DHT22;23682;53.508;10.476;2022-10-16T03:58:56;12.30;89.20
37842;DHT22;23682;53.508;10.476;2022-10-16T04:01:23;12.30;89.40
37842;DHT22;23682;53.508;10.476;2022-10-16T04:03:50;12.20;89.20
37842;DHT22;23682;53.508;10.476;2022-10-16T04:06:17;12.30;89.80
37842;DHT22;23682;53.508;10.476;2022-10-16T04:08:44;12.30;89.30
37842;DHT22;23682;53.508;10.476;2022-10-16T04:11:11;12.30;89.00
37842;DHT22;23682;53.508;10.476;2022-10-16T04:13:38;12.30;89.00
37842;DHT22;23682;53.508;10.476;2022-10-16T04:16:05;12.30;89.30
37842;DHT22;23682;53.508;10.476;2022-10-16T04:18:31;12.30;89.40
37842;DHT22;23682;53.508;10.476;2022-10-16T04:21:03;12.30;89.10
37842;DHT22;23682;53.508;10.476;2022-10-16T04:23:30;12.30;89.30
37842;DHT22;23682;53.508;10.476;2022-10-16T04:25:57;12.30;89.40
37842;DHT22;23682;53.508;10.476;2022-10-16T04:28:24;12.20;89.30
37842;DHT22;23682;53.508;10.476;2022-10-16T04:30:51;12.20;89.40
37842;DHT22;23682;53.508;10.476;2022-10-16T04:33:18;12.10;89.40
37842;DHT22;23682;53.508;10.476;2022-10-16T04:35:45;12.10;89.80
37842;DHT22;23682;53.508;10.476;2022-10-16T04:38:13;12.00;89.60
37842;DHT22;23682;53.508;10.476;2022-10-16T04:40:42;12.10;89.50
37842;DHT22;23682;53.508;10.476;2022-10-16T04:43:09;12.10;89.60
37842;DHT22;23682;53.508;10.476;2022-10-16T04:45:36;12.10;89.60
37842;DHT22;23682;53.508;10.476;2022-10-16T04:48:03;12.00;89.60
37842;DHT22;23682;53.508;10.476;2022-10-16T04:50:29;12.00;89.70
37842;DHT22;23682;53.508;10.476;2022-10-16T04:53:06;12.00;89.50
37842;DHT22;23682;53.508;10.476;2022-10-16T04:55:33;12.00;89.80
37842;DHT22;23682;53.508;10.476;2022-10-16T04:58:00;12.00;89.90
37842;DHT22;23682;53.508;10.476;2022-10-16T05:00:27;11.90;90.20
37842;DHT22;23682;53.508;10.476;2022-10-16T05:02:54;11.90;90.00
37842;DHT22;23682;53.508;10.476;2022-10-16T05:05:21;11.90;90.00
37842;DHT22;23682;53.508;10.476;2022-10-16T05:07:48;11.90;90.20
37842;DHT22;23682;53.508;10.476;2022-10-16T05:10:16;11.90;90.10
37842;DHT22;23682;53.508;10.476;2022-10-16T05:12:43;11.90;90.20
37842;DHT22;23682;53.508;10.476;2022-10-16T05:15:10;11.90;90.30
37842;DHT22;23682;53.508;10.476;2022-10-16T05:17:37;11.90;90.20
37842;DHT22;23682;53.508;10.476;2022-10-16T05:20:11;11.90;90.40
37842;DHT22;23682;53.508;10.476;2022-10-16T05:22:38;11.90;90.40
37842;DHT22;23682;53.508;10.476;2022-10-16T05:25:05;11.90;90.30
37842;DHT22;23682;53.508;10.476;2022-10-16T05:27:32;11.90;90.40
37842;DHT22;23682;53.508;10.476;2022-10-16T05:29:59;11.90;90.50
37842;DHT22;23682;53.508;10.476;2022-10-16T05:32:25;11.80;90.40
37842;DHT22;23682;53.508;10.476;2022-10-16T05:34:52;11.90;90.40
37842;DHT22;23682;53.508;10.476;2022-10-16T05:37:19;11.80;90.30
37842;DHT22;23682;53.508;10.476;2022-10-16T05:39:46;11.80;90.50
37842;DHT22;23682;53.508;10.476;2022-10-16T05:42:12;11.80;90.50
37842;DHT22;23682;53.508;10.476;2022-10-16T05:44:39;11.80;90.60
37842;DHT22;23682;53.508;10.476;2022-10-16T05:47:06;11.80;90.80
37842;DHT22;23682;53.508;10.476;2022-10-16T05:49:33;11.70;90.70
37842;DHT22;23682;53.508;10.476;2022-10-16T05:52:06;11.80;90.70
37842;DHT22;23682;53.508;10.476;2022-10-16T05:54:32;11.70;90.80
37842;DHT22;23682;53.508;10.476;2022-10-16T05:56:59;11.80;90.80
37842;DHT22;23682;53.508;10.476;2022-10-16T05:59:26;11.80;90.80
37842;DHT22;23682;53.508;10.476;2022-10-16T06:01:53;11.80;90.80
37842;DHT22;23682;53.508;10.476;2022-10-16T06:04:20;11.80;90.80
37842;DHT22;23682;53.508;10.476;2022-10-16T06:06:46;11.80;90.80
37842;DHT22;23682;53.508;10.476;2022-10-16T06:09:13;11.80;90.70
37842;DHT22;23682;53.508;10.476;2022-10-16T06:11:40;11.80;90.70
37842;DHT22;23682;53.508;10.476;2022-10-16T06:14:08;11.80;90.60
37842;DHT22;23682;53.508;10.476;2022-10-16T06:16:36;11.90;90.70
37842;DHT22;23682;53.508;10.476;2022-10-16T06:19:04;11.90;90.90
37842;DHT22;23682;53.508;10.476;2022-10-16T06:21:33;11.90;90.90
37842;DHT22;23682;53.508;10.476;2022-10-16T06:24:00;11.90;90.80
37842;DHT22;23682;53.508;10.476;2022-10-16T06:26:29;12.00;90.70
37842;DHT22;23682;53.508;10.476;2022-10-16T06:28:57;12.00;90.70
37842;DHT22;23682;53.508;10.476;2022-10-16T06:31:25;12.00;90.70
37842;DHT22;23682;53.508;10.476;2022-10-16T06:33:54;12.00;90.80
37842;DHT22;23682;53.508;10.476;2022-10-16T06:36:23;12.00;90.80
37842;DHT22;23682;53.508;10.476;2022-10-16T06:38:50;12.00;90.80
37842;DHT22;23682;53.508;10.476;2022-10-16T06:41:18;12.10;90.90
37842;DHT22;23682;53.508;10.476;2022-10-16T06:43:46;12.10;90.80
37842;DHT22;23682;53.508;10.476;2022-10-16T06:46:16;12.10;90.90
37842;DHT22;23682;53.508;10.476;2022-10-16T06:48:43;12.10;90.90
37842;DHT22;23682;53.508;10.476;2022-10-16T06:51:12;12.10;90.90
37842;DHT22;23682;53.508;10.476;2022-10-16T06:53:41;12.10;91.00
37842;DHT22;23682;53.508;10.476;2022-10-16T06:56:28;12.10;91.00
37842;DHT22;23682;53.508;10.476;2022-10-16T06:58:57;12.10;90.90
37842;DHT22;23682;53.508;10.476;2022-10-16T07:01:24;12.10;91.10
37842;DHT22;23682;53.508;10.476;2022-10-16T07:03:52;12.10;91.00
37842;DHT22;23682;53.508;10.476;2022-10-16T07:06:21;12.10;91.10
37842;DHT22;23682;53.508;10.476;2022-10-16T07:08:48;12.30;90.90
37842;DHT22;23682;53.508;10.476;2022-10-16T07:11:18;12.30;90.80
37842;DHT22;23682;53.508;10.476;2022-10-16T07:13:46;12.40;90.80
37842;DHT22;23682;53.508;10.476;2022-10-16T07:16:22;12.50;90.70
37842;DHT22;23682;53.508;10.476;2022-10-16T07:18:49;12.50;90.70
37842;DHT22;23682;53.508;10.476;2022-10-16T07:21:21;12.60;90.70
37842;DHT22;23682;53.508;10.476;2022-10-16T07:24:12;12.60;90.70
37842;DHT22;23682;53.508;10.476;2022-10-16T07:26:40;12.70;90.70
37842;DHT22;23682;53.508;10.476;2022-10-16T07:29:13;12.80;90.70
37842;DHT22;23682;53.508;10.476;2022-10-16T07:31:40;12.90;90.70
37842;DHT22;23682;53.508;10.476;2022-10-16T07:34:12;13.00;90.60
37842;DHT22;23682;53.508;10.476;2022-10-16T07:36:39;13.00;90.50
37842;DHT22;23682;53.508;10.476;2022-10-16T07:39:06;13.10;90.50
37842;DHT22;23682;53.508;10.476;2022-10-16T07:41:33;13.10;90.40
37842;DHT22;23682;53.508;10.476;2022-10-16T07:44:03;13.20;90.20
37842;DHT22;23682;53.508;10.476;2022-10-16T07:46:30;13.30;90.30
37842;DHT22;23682;53.508;10.476;2022-10-16T07:48:58;13.40;90.10
37842;DHT22;23682;53.508;10.476;2022-10-16T07:51:25;13.50;89.90
37842;DHT22;23682;53.508;10.476;2022-10-16T07:53:52;13.50;89.40
37842;DHT22;23682;53.508;10.476;2022-10-16T07:56:20;13.60;89.30
37842;DHT22;23682;53.508;10.476;2022-10-16T07:58:47;13.70;89.00
37842;DHT22;23682;53.508;10.476;2022-10-16T08:01:17;13.90;88.70
37842;DHT22;23682;53.508;10.476;2022-10-16T08:03:46;14.00;88.00
37842;DHT22;23682;53.508;10.476;2022-10-16T08:06:13;14.00;87.40
37842;DHT22;23682;53.508;10.476;2022-10-16T08:08:40;14.20;87.10
37842;DHT22;23682;53.508;10.476;2022-10-16T08:11:07;14.20;86.80
37842;DHT22;23682;53.508;10.476;2022-10-16T08:13:34;14.30;86.30
37842;DHT22;23682;53.508;10.476;2022-10-16T08:16:02;14.40;85.70
37842;DHT22;23682;53.508;10.476;2022-10-16T08:18:30;14.40;85.80
37842;DHT22;23682;53.508;10.476;2022-10-16T08:20:58;14.40;85.30
37842;DHT22;23682;53.508;10.476;2022-10-16T08:23:27;14.50;85.50
37842;DHT22;23682;53.508;10.476;2022-10-16T08:25:55;14.60;85.40
37842;DHT22;23682;53.508;10.476;2022-10-16T08:28:23;14.60;85.00
37842;DHT22;23682;53.508;10.476;2022-10-16T08:30:50;14.60;85.20
37842;DHT22;23682;53.508;10.476;2022-10-16T08:33:17;14.60;85.70
37842;DHT22;23682;53.508;10.476;2022-10-16T08:35:51;14.50;85.90
37842;DHT22;23682;53.508;10.476;2022-10-16T08:38:19;14.50;85.70
37842;DHT22;23682;53.508;10.476;2022-10-16T08:40:46;14.50;85.90
37842;DHT22;23682;53.508;10.476;2022-10-16T08:43:35;14.50;86.00
37842;DHT22;23682;53.508;10.476;2022-10-16T08:46:16;14.50;86.20
37842;DHT22;23682;53.508;10.476;2022-10-16T08:48:53;14.50;85.90
37842;DHT22;23682;53.508;10.476;2022-10-16T08:51:24;14.60;85.90
37842;DHT22;23682;53.508;10.476;2022-10-16T08:54:18;14.60;85.70
37842;DHT22;23682;53.508;10.476;2022-10-16T08:56:44;14.70;85.50
37842;DHT22;23682;53.508;10.476;2022-10-16T08:59:11;14.70;84.80
37842;DHT22;23682;53.508;10.476;2022-10-16T09:01:44;14.80;85.50
37842;DHT22;23682;53.508;10.476;2022-10-16T09:04:26;14.90;85.60
37842;DHT22;23682;53.508;10.476;2022-10-16T09:07:00;14.90;84.60
37842;DHT22;23682;53.508;10.476;2022-10-16T09:12:05;15.10;83.90
37842;DHT22;23682;53.508;10.476;2022-10-16T09:14:52;15.10;83.70
37842;DHT22;23682;53.508;10.476;2022-10-16T09:22:39;15.30;82.30
37842;DHT22;23682;53.508;10.476;2022-10-16T09:25:14;15.40;82.40
37842;DHT22;23682;53.508;10.476;2022-10-16T09:27:44;15.40;81.80
37842;DHT22;23682;53.508;10.476;2022-10-16T09:30:22;15.40;81.80
37842;DHT22;23682;53.508;10.476;2022-10-16T09:32:51;15.50;82.30
37842;DHT22;23682;53.508;10.476;2022-10-16T09:35:36;15.60;82.30
37842;DHT22;23682;53.508;10.476;2022-10-16T09:38:04;15.60;81.80
37842;DHT22;23682;53.508;10.476;2022-10-16T09:40:33;15.70;81.40
37842;DHT22;23682;53.508;10.476;2022-10-16T09:45:39;15.80;81.20
37842;DHT22;23682;53.508;10.476;2022-10-16T09:48:17;15.90;81.40
37842;DHT22;23682;53.508;10.476;2022-10-16T09:50:56;16.00;80.90
37842;DHT22;23682;53.508;10.476;2022-10-16T09:53:23;16.00;79.70
37842;DHT22;23682;53.508;10.476;2022-10-16T09:55:54;16.00;79.60
37842;DHT22;23682;53.508;10.476;2022-10-16T09:58:24;16.10;79.60
37842;DHT22;23682;53.508;10.476;2022-10-16T10:00:53;16.10;78.10
37842;DHT22;23682;53.508;10.476;2022-10-16T10:03:40;16.20;77.40
37842;DHT22;23682;53.508;10.476;2022-10-16T10:06:33;16.20;77.20
37842;DHT22;23682;53.508;10.476;2022-10-16T10:16:46;16.40;75.70
37842;DHT22;23682;53.508;10.476;2022-10-16T10:19:18;16.50;74.90
37842;DHT22;23682;53.508;10.476;2022-10-16T10:21:46;16.50;74.90
37842;DHT22;23682;53.508;10.476;2022-10-16T10:24:15;16.50;73.90
37842;DHT22;23682;53.508;10.476;2022-10-16T10:35:27;16.60;73.70
37842;DHT22;23682;53.508;10.476;2022-10-16T10:38:27;16.70;72.60
37842;DHT22;23682;53.508;10.476;2022-10-16T10:44:07;16.70;70.80
37842;DHT22;23682;53.508;10.476;2022-10-16T10:47:00;16.80;71.30
37842;DHT22;23682;53.508;10.476;2022-10-16T10:50:02;16.80;71.10
37842;DHT22;23682;53.508;10.476;2022-10-16T10:53:04;16.80;71.20
37842;DHT22;23682;53.508;10.476;2022-10-16T10:55:45;17.00;69.80
37842;DHT22;23682;53.508;10.476;2022-10-16T11:01:16;17.10;68.70
37842;DHT22;23682;53.508;10.476;2022-10-16T11:06:33;16.90;69.10
37842;DHT22;23682;53.508;10.476;2022-10-16T11:09:15;17.00;67.90
37842;DHT22;23682;53.508;10.476;2022-10-16T11:11:50;17.00;67.60
37842;DHT22;23682;53.508;10.476;2022-10-16T11:30:29;17.40;65.90
37842;DHT22;23682;53.508;10.476;2022-10-16T11:36:11;17.40;64.60
37842;DHT22;23682;53.508;10.476;2022-10-16T11:41:33;17.40;65.00
37842;DHT22;23682;53.508;10.476;2022-10-16T11:46:53;17.40;64.90
37842;DHT22;23682;53.508;10.476;2022-10-16T11:49:44;17.40;64.70
37842;DHT22;23682;53.508;10.476;2022-10-16T11:52:20;17.30;65.00
37842;DHT22;23682;53.508;10.476;2022-10-16T11:54:59;17.30;64.70
37842;DHT22;23682;53.508;10.476;2022-10-16T11:57:32;17.20;64.40
37842;DHT22;23682;53.508;10.476;2022-10-16T12:03:20;17.40;64.80
37842;DHT22;23682;53.508;10.476;2022-10-16T12:08:28;17.50;64.50
37842;DHT22;23682;53.508;10.476;2022-10-16T12:11:19;17.60;64.70
37842;DHT22;23682;53.508;10.476;2022-10-16T12:13:47;17.70;63.50
37842;DHT22;23682;53.508;10.476;2022-10-16T12:18:43;17.60;62.20
37842;DHT22;23682;53.508;10.476;2022-10-16T12:21:12;17.60;62.50
37842;DHT22;23682;53.508;10.476;2022-10-16T12:23:53;17.70;62.40
37842;DHT22;23682;53.508;10.476;2022-10-16T12:26:36;17.80;63.10
37842;DHT22;23682;53.508;10.476;2022-10-16T12:29:35;17.90;63.50
37842;DHT22;23682;53.508;10.476;2022-10-16T12:32:04;18.00;62.40
37842;DHT22;23682;53.508;10.476;2022-10-16T12:34:41;18.10;62.80
37842;DHT22;23682;53.508;10.476;2022-10-16T12:37:21;18.00;61.00
37842;DHT22;23682;53.508;10.476;2022-10-16T12:39:52;17.90;61.70
37842;DHT22;23682;53.508;10.476;2022-10-16T12:44:50;18.00;62.00
37842;DHT22;23682;53.508;10.476;2022-10-16T12:47:36;18.10;60.50
37842;DHT22;23682;53.508;10.476;2022-10-16T12:50:21;18.10;61.00
37842;DHT22;23682;53.508;10.476;2022-10-16T12:52:49;18.10;61.30
37842;DHT22;23682;53.508;10.476;2022-10-16T12:55:18;18.00;60.20
37842;DHT22;23682;53.508;10.476;2022-10-16T13:08:44;17.70;62.60
37842;DHT22;23682;53.508;10.476;2022-10-16T13:17:29;17.90;61.80
37842;DHT22;23682;53.508;10.476;2022-10-16T13:22:51;18.20;61.10
37842;DHT22;23682;53.508;10.476;2022-10-16T13:26:15;18.10;61.50
37842;DHT22;23682;53.508;10.476;2022-10-16T13:28:33;18.10;61.20
37842;DHT22;23682;53.508;10.476;2022-10-16T13:31:01;18.00;62.20
37842;DHT22;23682;53.508;10.476;2022-10-16T13:33:37;18.00;62.70
37842;DHT22;23682;53.508;10.476;2022-10-16T13:36:05;18.00;64.20
37842;DHT22;23682;53.508;10.476;2022-10-16T13:38:36;17.90;62.50
37842;DHT22;23682;53.508;10.476;2022-10-16T13:41:05;17.80;62.90
37842;DHT22;23682;53.508;10.476;2022-10-16T13:43:47;17.60;62.50
37842;DHT22;23682;53.508;10.476;2022-10-16T13:46:21;17.50;62.30
37842;DHT22;23682;53.508;10.476;2022-10-16T13:49:02;17.40;62.40
37842;DHT22;23682;53.508;10.476;2022-10-16T13:51:30;17.40;61.00
37842;DHT22;23682;53.508;10.476;2022-10-16T13:53:57;17.40;60.10
37842;DHT22;23682;53.508;10.476;2022-10-16T13:56:26;17.40;60.10
37842;DHT22;23682;53.508;10.476;2022-10-16T13:59:00;17.30;61.40
37842;DHT22;23682;53.508;10.476;2022-10-16T14:01:30;17.30;61.10
37842;DHT22;23682;53.508;10.476;2022-10-16T14:04:06;17.30;60.00
37842;DHT22;23682;53.508;10.476;2022-10-16T14:06:33;17.30;61.00
37842;DHT22;23682;53.508;10.476;2022-10-16T14:09:08;17.30;62.00
37842;DHT22;23682;53.508;10.476;2022-10-16T14:11:49;17.30;62.40
37842;DHT22;23682;53.508;10.476;2022-10-16T14:14:19;17.30;62.30
37842;DHT22;23682;53.508;10.476;2022-10-16T14:16:46;17.30;62.60
37842;DHT22;23682;53.508;10.476;2022-10-16T14:19:24;17.20;63.10
37842;DHT22;23682;53.508;10.476;2022-10-16T14:21:52;17.20;62.70
37842;DHT22;23682;53.508;10.476;2022-10-16T14:26:54;17.20;62.60
37842;DHT22;23682;53.508;10.476;2022-10-16T14:29:25;17.20;61.70
37842;DHT22;23682;53.508;10.476;2022-10-16T14:31:56;17.20;61.70
37842;DHT22;23682;53.508;10.476;2022-10-16T14:37:02;17.10;61.40
37842;DHT22;23682;53.508;10.476;2022-10-16T14:39:39;17.10;62.20
37842;DHT22;23682;53.508;10.476;2022-10-16T14:42:17;17.10;61.70
37842;DHT22;23682;53.508;10.476;2022-10-16T14:44:46;17.10;62.60
37842;DHT22;23682;53.508;10.476;2022-10-16T14:47:16;17.10;62.90
37842;DHT22;23682;53.508;10.476;2022-10-16T14:49:48;17.40;61.90
37842;DHT22;23682;53.508;10.476;2022-10-16T14:52:15;17.40;61.90
37842;DHT22;23682;53.508;10.476;2022-10-16T14:54:42;17.30;62.20
37842;DHT22;23682;53.508;10.476;2022-10-16T14:57:20;17.10;63.20
37842;DHT22;23682;53.508;10.476;2022-10-16T14:59:49;17.00;64.30
37842;DHT22;23682;53.508;10.476;2022-10-16T15:04:48;16.90;63.00
37842;DHT22;23682;53.508;10.476;2022-10-16T15:07:15;16.80;63.80
37842;DHT22;23682;53.508;10.476;2022-10-16T15:09:42;16.70;64.30
37842;DHT22;23682;53.508;10.476;2022-10-16T15:12:15;16.70;64.80
37842;DHT22;23682;53.508;10.476;2022-10-16T15:14:42;16.60;64.80
37842;DHT22;23682;53.508;10.476;2022-10-16T15:17:10;16.60;65.40
37842;DHT22;23682;53.508;10.476;2022-10-16T15:19:37;16.50;64.60
37842;DHT22;23682;53.508;10.476;2022-10-16T15:22:04;16.50;65.20
37842;DHT22;23682;53.508;10.476;2022-10-16T15:24:31;16.40;64.50
37842;DHT22;23682;53.508;10.476;2022-10-16T15:26:58;16.40;65.10
37842;DHT22;23682;53.508;10.476;2022-10-16T15:29:25;16.40;65.20
37842;DHT22;23682;53.508;10.476;2022-10-16T15:31:51;16.30;65.20
37842;DHT22;23682;53.508;10.476;2022-10-16T15:34:18;16.30;65.70
37842;DHT22;23682;53.508;10.476;2022-10-16T15:36:46;16.20;66.60
37842;DHT22;23682;53.508;10.476;2022-10-16T15:39:18;16.10;66.40
37842;DHT22;23682;53.508;10.476;2022-10-16T15:41:48;16.10;66.70
37842;DHT22;23682;53.508;10.476;2022-10-16T15:44:20;16.00;67.20
37842;DHT22;23682;53.508;10.476;2022-10-16T15:46:49;16.00;66.40
37842;DHT22;23682;53.508;10.476;2022-10-16T15:49:16;16.00;67.20
37842;DHT22;23682;53.508;10.476;2022-10-16T15:51:43;15.90;67.60
37842;DHT22;23682;53.508;10.476;2022-10-16T15:54:09;15.80;68.20
37842;DHT22;23682;53.508;10.476;2022-10-16T15:56:36;15.70;68.50
37842;DHT22;23682;53.508;10.476;2022-10-16T15:59:04;15.60;69.20
37842;DHT22;23682;53.508;10.476;2022-10-16T16:01:33;15.60;68.80
37842;DHT22;23682;53.508;10.476;2022-10-16T16:04:00;15.50;69.60
37842;DHT22;23682;53.508;10.476;2022-10-16T16:06:41;15.40;69.90
37842;DHT22;23682;53.508;10.476;2022-10-16T16:09:12;15.30;70.40
37842;DHT22;23682;53.508;10.476;2022-10-16T16:11:39;15.20;70.50
37842;DHT22;23682;53.508;10.476;2022-10-16T16:14:07;15.10;71.40
37842;DHT22;23682;53.508;10.476;2022-10-16T16:16:34;15.10;71.50
37842;DHT22;23682;53.508;10.476;2022-10-16T16:19:07;15.00;71.90
37842;DHT22;23682;53.508;10.476;2022-10-16T16:21:37;14.90;71.80
37842;DHT22;23682;53.508;10.476;2022-10-16T16:24:04;14.90;72.40
37842;DHT22;23682;53.508;10.476;2022-10-16T16:26:35;14.80;72.90
37842;DHT22;23682;53.508;10.476;2022-10-16T16:29:06;14.70;73.20
37842;DHT22;23682;53.508;10.476;2022-10-16T16:31:33;14.60;74.10
37842;DHT22;23682;53.508;10.476;2022-10-16T16:34:01;14.60;74.50
37842;DHT22;23682;53.508;10.476;2022-10-16T16:36:28;14.50;75.00
37842;DHT22;23682;53.508;10.476;2022-10-16T16:38:55;14.40;75.00
37842;DHT22;23682;53.508;10.476;2022-10-16T16:41:25;14.40;74.70
37842;DHT22;23682;53.508;10.476;2022-10-16T16:43:53;14.30;75.00
37842;DHT22;23682;53.508;10.476;2022-10-16T16:46:21;14.30;75.20
37842;DHT22;23682;53.508;10.476;2022-10-16T16:48:48;14.20;75.40
37842;DHT22;23682;53.508;10.476;2022-10-16T16:51:20;14.10;75.40
37842;DHT22;23682;53.508;10.476;2022-10-16T16:53:49;14.10;75.60
37842;DHT22;23682;53.508;10.476;2022-10-16T16:56:17;14.00;75.80
37842;DHT22;23682;53.508;10.476;2022-10-16T16:58:53;14.00;76.10
37842;DHT22;23682;53.508;10.476;2022-10-16T17:01:21;13.90;76.20
37842;DHT22;23682;53.508;10.476;2022-10-16T17:03:51;13.90;76.00
37842;DHT22;23682;53.508;10.476;2022-10-16T17:06:20;13.90;76.60
37842;DHT22;23682;53.508;10.476;2022-10-16T17:08:48;13.80;76.80
37842;DHT22;23682;53.508;10.476;2022-10-16T17:11:17;13.70;77.00
37842;DHT22;23682;53.508;10.476;2022-10-16T17:13:45;13.70;77.50
37842;DHT22;23682;53.508;10.476;2022-10-16T17:16:13;13.70;77.80
37842;DHT22;23682;53.508;10.476;2022-10-16T17:18:40;13.60;77.70
37842;DHT22;23682;53.508;10.476;2022-10-16T17:21:09;13.60;77.60
37842;DHT22;23682;53.508;10.476;2022-10-16T17:23:37;13.60;78.50
37842;DHT22;23682;53.508;10.476;2022-10-16T17:26:10;13.60;77.80
37842;DHT22;23682;53.508;10.476;2022-10-16T17:28:37;13.60;78.10
37842;DHT22;23682;53.508;10.476;2022-10-16T17:31:41;13.50;78.30
37842;DHT22;23682;53.508;10.476;2022-10-16T17:34:02;13.50;78.70
37842;DHT22;23682;53.508;10.476;2022-10-16T17:36:30;13.40;79.30
37842;DHT22;23682;53.508;10.476;2022-10-16T17:39:05;13.40;79.30
37842;DHT22;23682;53.508;10.476;2022-10-16T17:41:33;13.40;79.60